createdAt,value
2017-11-19T00:00:07.152Z,9.97
2017-11-19T00:02:34.697Z,9.10
2017-11-19T00:05:02.314Z,8.97
2017-11-19T00:07:29.895Z,9.87
2017-11-19T00:09:57.540Z,10.03
2017-11-19T00:12:25.143Z,9.43
2017-11-19T00:14:52.788Z,9.10
2017-11-19T00:17:20.400Z,9.23
2017-11-19T00:19:48.040Z,9.80
2017-11-19T00:22:15.643Z,9.97
2017-11-19T00:24:43.243Z,10.47
2017-11-19T00:27:10.875Z,9.63
2017-11-19T00:29:38.497Z,10.13
2017-11-19T00:32:06.851Z,10.33
2017-11-19T00:34:34.489Z,11.37
2017-11-19T00:37:02.119Z,10.40
2017-11-19T00:39:29.747Z,10.37
2017-11-19T00:41:57.428Z,10.27
2017-11-19T00:44:25.831Z,9.60
2017-11-19T00:46:53.436Z,9.77
2017-11-19T00:49:21.149Z,9.83
2017-11-19T00:51:49.515Z,16.40
2017-11-19T00:54:17.900Z,10.57
2017-11-19T00:56:46.296Z,11.13
2017-11-19T00:59:13.906Z,9.97
2017-11-19T01:01:41.523Z,9.93
2017-11-19T01:04:09.273Z,9.70
2017-11-19T01:06:37.677Z,11.50
2017-11-19T01:09:05.355Z,11.00
2017-11-19T01:11:32.952Z,11.07
2017-11-19T01:14:00.572Z,10.93
2017-11-19T01:16:28.179Z,10.97
2017-11-19T01:18:55.803Z,11.83
2017-11-19T01:21:23.429Z,11.27
2017-11-19T01:23:51.850Z,11.30
2017-11-19T01:26:19.475Z,11.63
2017-11-19T01:28:47.918Z,11.27
2017-11-19T01:31:15.594Z,10.80
2017-11-19T01:33:43.245Z,11.90
2017-11-19T01:36:10.894Z,11.07
2017-11-19T01:38:38.495Z,11.47
2017-11-19T01:41:06.899Z,11.60
2017-11-19T01:43:34.508Z,11.63
2017-11-19T01:46:02.131Z,10.63
2017-11-19T01:48:29.741Z,10.60
2017-11-19T01:50:57.449Z,12.20
2017-11-19T01:53:25.092Z,10.50
2017-11-19T01:55:53.447Z,11.37
2017-11-19T01:58:21.076Z,10.80
2017-11-19T02:00:49.544Z,10.00
2017-11-19T02:03:17.147Z,11.13
2017-11-19T02:05:44.756Z,10.87
2017-11-19T02:08:12.486Z,9.80
2017-11-19T02:10:40.133Z,10.70
2017-11-19T02:13:07.792Z,10.20
2017-11-19T02:15:35.419Z,9.23
2017-11-19T02:18:03.043Z,10.00
2017-11-19T02:20:31.483Z,9.57
2017-11-19T02:22:59.088Z,10.03
2017-11-19T02:25:27.461Z,9.43
2017-11-19T02:27:55.085Z,8.87
2017-11-19T02:30:22.789Z,9.13
2017-11-19T02:32:51.191Z,9.60
2017-11-19T02:35:19.558Z,8.47
2017-11-19T02:37:47.954Z,8.23
2017-11-19T02:40:16.320Z,8.40
2017-11-19T02:42:44.718Z,7.60
2017-11-19T02:45:12.324Z,7.83
2017-11-19T02:47:39.964Z,7.30
2017-11-19T02:50:07.635Z,6.80
2017-11-19T02:52:35.288Z,6.80
2017-11-19T02:55:02.886Z,7.30
2017-11-19T02:57:30.482Z,6.80
2017-11-19T02:59:58.884Z,6.40
2017-11-19T03:02:26.516Z,6.20
2017-11-19T03:04:54.892Z,6.23
2017-11-19T03:07:23.315Z,5.90
2017-11-19T03:09:50.954Z,5.23
2017-11-19T03:12:19.305Z,5.43
2017-11-19T03:14:47.044Z,5.00
2017-11-19T03:17:14.691Z,4.57
2017-11-19T03:19:42.299Z,5.07
2017-11-19T03:22:10.664Z,4.60
2017-11-19T03:24:38.247Z,4.50
2017-11-19T03:27:06.629Z,4.60
2017-11-19T03:29:34.989Z,5.40
2017-11-19T03:32:02.580Z,5.30
2017-11-19T03:34:31.075Z,4.57
2017-11-19T03:36:58.683Z,4.07
2017-11-19T03:39:26.395Z,4.00
2017-11-19T03:41:54.016Z,3.83
2017-11-19T03:44:21.644Z,4.30
2017-11-19T03:46:49.229Z,4.30
2017-11-19T03:49:16.944Z,4.20
2017-11-19T03:51:44.557Z,4.00
2017-11-19T03:54:12.180Z,4.00
2017-11-19T03:56:39.808Z,3.90
2017-11-19T03:59:08.172Z,3.77
2017-11-19T04:01:35.805Z,4.13
2017-11-19T04:04:03.417Z,3.90
2017-11-19T04:06:31.802Z,3.83
2017-11-19T04:09:00.172Z,4.20
2017-11-19T04:11:28.583Z,3.77
2017-11-19T04:13:56.197Z,4.00
2017-11-19T04:16:24.403Z,3.50
2017-11-19T04:18:52.766Z,4.07
2017-11-19T04:21:20.416Z,4.33
2017-11-19T04:23:48.040Z,3.97
2017-11-19T04:26:15.675Z,4.00
2017-11-19T04:28:44.045Z,3.70
2017-11-19T04:31:12.441Z,3.97
2017-11-19T04:33:40.033Z,3.77
2017-11-19T04:36:07.644Z,3.50
2017-11-19T04:38:36.042Z,3.33
2017-11-19T04:41:03.626Z,3.60
2017-11-19T04:43:31.295Z,3.27
2017-11-19T04:45:58.929Z,3.30
2017-11-19T04:48:27.316Z,3.23
2017-11-19T04:50:54.927Z,3.30
2017-11-19T04:53:22.559Z,3.77
2017-11-19T04:55:50.162Z,3.43
2017-11-19T04:58:18.551Z,3.27
2017-11-19T05:00:46.952Z,3.20
2017-11-19T05:03:15.423Z,3.30
2017-11-19T05:05:43.813Z,3.57
2017-11-19T05:08:12.179Z,3.70
2017-11-19T05:10:40.564Z,3.67
2017-11-19T05:13:08.924Z,3.33
2017-11-19T05:15:36.540Z,2.93
2017-11-19T05:18:04.169Z,2.47
2017-11-19T05:20:32.524Z,2.50
2017-11-19T05:23:00.126Z,2.40
2017-11-19T05:25:27.711Z,2.30
2017-11-19T05:27:55.442Z,3.10
2017-11-19T05:30:23.806Z,2.57
2017-11-19T05:32:52.195Z,2.60
2017-11-19T05:35:20.559Z,2.70
2017-11-19T05:37:48.300Z,2.63
2017-11-19T05:40:15.899Z,2.40
2017-11-19T05:42:44.287Z,2.80
2017-11-19T05:45:12.676Z,2.47
2017-11-19T05:47:40.334Z,2.57
2017-11-19T05:50:07.948Z,2.53
2017-11-19T05:52:35.563Z,3.43
2017-11-19T05:55:03.163Z,2.63
2017-11-19T05:57:30.784Z,3.20
2017-11-19T05:59:59.176Z,2.30
2017-11-19T06:02:26.830Z,2.47
2017-11-19T06:04:54.456Z,2.30
2017-11-19T06:07:22.051Z,2.50
2017-11-19T06:09:49.678Z,2.33
2017-11-19T06:12:17.305Z,2.23
2017-11-19T06:14:44.933Z,1.77
2017-11-19T06:17:13.296Z,1.83
2017-11-19T06:19:41.680Z,1.73
2017-11-19T06:22:10.064Z,1.50
2017-11-19T06:24:38.480Z,1.30
2017-11-19T06:27:06.145Z,1.33
2017-11-19T06:29:33.784Z,1.20
2017-11-19T06:32:01.427Z,1.10
2017-11-19T06:34:29.801Z,1.30
2017-11-19T06:36:57.593Z,1.10
2017-11-19T06:39:25.203Z,1.10
2017-11-19T06:41:52.839Z,1.40
2017-11-19T06:44:20.459Z,1.30
2017-11-19T06:46:48.927Z,1.50
2017-11-19T06:49:17.319Z,1.60
2017-11-19T06:51:45.717Z,1.40
2017-11-19T06:54:14.095Z,1.40
2017-11-19T06:56:42.508Z,1.20
2017-11-19T06:59:10.102Z,1.27
2017-11-19T07:01:38.498Z,1.33
2017-11-19T07:04:06.901Z,1.50
2017-11-19T07:06:35.278Z,1.30
2017-11-19T07:09:03.651Z,1.57
2017-11-19T07:11:32.031Z,1.70
2017-11-19T07:14:00.439Z,1.90
2017-11-19T07:16:28.052Z,1.50
2017-11-19T07:18:55.672Z,1.80
2017-11-19T07:21:23.271Z,1.40
2017-11-19T07:23:50.896Z,1.30
2017-11-19T07:26:18.506Z,1.03
2017-11-19T07:28:46.134Z,1.27
2017-11-19T07:31:13.742Z,1.00
2017-11-19T07:33:42.167Z,0.80
2017-11-19T07:36:09.791Z,1.20
2017-11-19T07:38:38.168Z,0.90
2017-11-19T07:41:05.828Z,0.83
2017-11-19T07:43:34.200Z,0.90
2017-11-19T07:46:01.958Z,0.90
2017-11-19T07:48:29.571Z,1.00
2017-11-19T07:50:57.183Z,0.90
2017-11-19T07:53:24.831Z,0.90
2017-11-19T07:55:52.446Z,1.10
2017-11-19T07:58:20.060Z,0.90
2017-11-19T08:00:47.681Z,1.00
2017-11-19T08:03:16.439Z,1.00
2017-11-19T08:05:44.822Z,1.20
2017-11-19T08:08:13.234Z,1.20
2017-11-19T08:10:40.864Z,1.10
2017-11-19T08:13:09.259Z,1.70
2017-11-19T08:15:36.875Z,1.80
2017-11-19T08:18:04.503Z,1.50
2017-11-19T08:20:32.095Z,1.80
2017-11-19T08:22:59.800Z,1.70
2017-11-19T08:25:27.419Z,1.87
2017-11-19T08:27:55.046Z,2.00
2017-11-19T08:30:22.668Z,2.03
2017-11-19T08:32:51.057Z,1.60
2017-11-19T08:35:19.449Z,2.10
2017-11-19T08:37:47.064Z,1.90
2017-11-19T08:40:14.696Z,2.13
2017-11-19T08:42:42.316Z,2.10
2017-11-19T08:45:10.709Z,2.47
2017-11-19T08:47:39.220Z,2.50
2017-11-19T08:50:06.843Z,2.80
2017-11-19T08:52:35.260Z,3.00
2017-11-19T08:55:02.985Z,2.57
2017-11-19T08:57:30.642Z,2.93
2017-11-19T08:59:58.332Z,2.90
2017-11-19T09:02:25.943Z,3.17
2017-11-19T09:04:53.561Z,3.47
2017-11-19T09:07:21.317Z,3.10
2017-11-19T09:09:48.941Z,3.97
2017-11-19T09:12:16.605Z,3.60
2017-11-19T09:14:44.223Z,4.33
2017-11-19T09:17:11.843Z,4.97
2017-11-19T09:19:39.579Z,5.10
2017-11-19T09:22:07.169Z,4.37
2017-11-19T09:24:34.791Z,3.30
2017-11-19T09:27:02.409Z,4.00
2017-11-19T09:29:30.825Z,3.80
2017-11-19T09:31:58.456Z,2.73
2017-11-19T09:34:26.843Z,2.70
2017-11-19T09:36:54.525Z,3.77
2017-11-19T09:39:22.923Z,2.93
2017-11-19T09:41:50.521Z,3.90
2017-11-19T09:44:18.131Z,3.50
2017-11-19T09:46:45.760Z,3.13
2017-11-19T09:49:14.160Z,3.17
2017-11-19T09:51:41.787Z,3.30
2017-11-19T09:54:09.403Z,2.77
2017-11-19T09:56:37.091Z,3.33
2017-11-19T09:59:04.736Z,2.90
2017-11-19T10:01:32.376Z,2.80
2017-11-19T10:04:00.023Z,2.63
2017-11-19T10:06:27.655Z,2.70
2017-11-19T10:08:55.247Z,3.03
2017-11-19T10:11:23.628Z,2.80
2017-11-19T10:13:51.995Z,4.10
2017-11-19T10:16:20.416Z,3.50
2017-11-19T10:18:48.031Z,3.00
2017-11-19T10:21:16.439Z,3.10
2017-11-19T10:23:44.086Z,2.63
2017-11-19T10:26:12.467Z,3.93
2017-11-19T10:28:40.866Z,4.87
2017-11-19T10:31:08.555Z,4.27
2017-11-19T10:33:36.144Z,3.60
2017-11-19T10:36:03.772Z,2.97
2017-11-19T10:38:31.427Z,2.70
2017-11-19T10:40:59.044Z,3.07
2017-11-19T10:43:26.669Z,3.10
2017-11-19T10:45:54.317Z,3.50
2017-11-19T10:48:21.975Z,3.17
2017-11-19T10:50:49.652Z,2.87
2017-11-19T10:53:17.994Z,3.10
2017-11-19T10:55:46.388Z,3.67
2017-11-19T10:58:14.025Z,3.57
2017-11-19T11:00:42.437Z,3.50
2017-11-19T11:03:10.065Z,3.03
2017-11-19T11:05:37.680Z,3.73
2017-11-19T11:08:05.325Z,3.27
2017-11-19T11:10:32.942Z,3.70
2017-11-19T11:13:00.585Z,3.33
2017-11-19T11:15:28.240Z,3.03
2017-11-19T11:17:55.948Z,3.33
2017-11-19T11:20:24.329Z,3.40
2017-11-19T11:22:52.719Z,3.63
2017-11-19T11:25:21.103Z,3.33
2017-11-19T11:27:49.471Z,3.00
2017-11-19T11:30:17.861Z,3.27
2017-11-19T11:32:46.230Z,3.83
2017-11-19T11:35:14.616Z,3.00
2017-11-19T11:37:43.007Z,3.30
2017-11-19T11:40:10.634Z,3.63
2017-11-19T11:42:38.260Z,3.43
2017-11-19T11:45:05.872Z,3.50
2017-11-19T11:47:34.309Z,3.37
2017-11-19T11:50:02.181Z,3.43
2017-11-19T11:52:29.805Z,3.50
2017-11-19T11:54:57.432Z,3.43
2017-11-19T11:57:25.070Z,3.73
2017-11-19T11:59:52.672Z,3.53
2017-11-19T12:02:21.051Z,3.00
2017-11-19T12:04:49.465Z,3.30
2017-11-19T12:07:17.081Z,2.93
2017-11-19T12:09:44.715Z,4.50
2017-11-19T12:12:12.312Z,3.60
2017-11-19T12:14:40.706Z,3.30
2017-11-19T12:17:09.101Z,3.67
2017-11-19T12:19:36.716Z,2.87
2017-11-19T12:22:04.350Z,2.00
2017-11-19T12:24:32.007Z,2.90
2017-11-19T12:26:59.649Z,2.50
2017-11-19T12:29:27.289Z,2.33
2017-11-19T12:31:55.677Z,2.50
2017-11-19T12:34:24.037Z,2.50
2017-11-19T12:36:51.675Z,3.07
2017-11-19T12:39:20.051Z,2.50
2017-11-19T12:41:47.671Z,3.00
2017-11-19T12:44:16.044Z,2.10
2017-11-19T12:46:44.448Z,2.77
2017-11-19T12:49:12.069Z,2.57
2017-11-19T12:51:39.693Z,2.60
2017-11-19T12:54:07.308Z,3.10
2017-11-19T12:56:35.676Z,2.60
2017-11-19T12:59:04.064Z,2.40
2017-11-19T13:01:32.440Z,2.33
2017-11-19T13:04:00.864Z,2.60
2017-11-19T13:06:28.505Z,2.57
2017-11-19T13:08:56.134Z,2.50
2017-11-19T13:11:23.777Z,2.60
2017-11-19T13:13:51.447Z,2.00
2017-11-19T13:16:19.056Z,2.33
2017-11-19T13:18:46.656Z,2.30
2017-11-19T13:21:14.280Z,2.30
2017-11-19T13:23:42.172Z,2.67
2017-11-19T13:26:10.616Z,2.40
2017-11-19T13:28:38.999Z,2.40
2017-11-19T13:31:07.444Z,2.57
2017-11-19T13:33:35.075Z,2.60
2017-11-19T13:36:02.684Z,2.77
2017-11-19T13:38:30.300Z,2.30
2017-11-19T13:40:58.049Z,3.13
2017-11-19T13:43:25.658Z,2.30
2017-11-19T13:45:53.319Z,2.70
2017-11-19T13:48:20.912Z,2.60
2017-11-19T13:50:49.312Z,2.93
2017-11-19T13:53:16.929Z,2.30
2017-11-19T13:55:44.582Z,2.70
2017-11-19T13:58:12.240Z,2.70
2017-11-19T14:00:39.863Z,2.53
2017-11-19T14:03:07.498Z,3.40
2017-11-19T14:05:35.132Z,3.10
2017-11-19T14:08:02.824Z,3.33
2017-11-19T14:10:31.198Z,2.90
2017-11-19T14:12:58.902Z,2.90
2017-11-19T14:15:26.523Z,3.17
2017-11-19T14:17:54.185Z,2.30
2017-11-19T14:20:21.876Z,2.97
2017-11-19T14:22:50.246Z,2.67
2017-11-19T14:25:18.646Z,2.60
2017-11-19T14:27:46.253Z,2.77
2017-11-19T14:30:13.924Z,8.77
2017-11-19T14:32:41.555Z,3.53
2017-11-19T14:35:09.234Z,2.60
2017-11-19T14:37:36.859Z,2.80
2017-11-19T14:40:04.529Z,2.83
2017-11-19T14:42:32.148Z,3.00
2017-11-19T14:44:59.791Z,2.97
2017-11-19T14:47:27.469Z,2.50
2017-11-19T14:49:55.096Z,2.60
2017-11-19T14:52:22.739Z,2.50
2017-11-19T14:54:50.448Z,2.60
2017-11-19T14:57:18.092Z,2.83
2017-11-19T14:59:45.742Z,2.97
2017-11-19T15:02:13.397Z,2.90
2017-11-19T15:04:41.014Z,3.00
2017-11-19T15:07:08.672Z,3.00
2017-11-19T15:09:36.325Z,2.90
2017-11-19T15:12:03.932Z,2.40
2017-11-19T15:14:32.347Z,3.00
2017-11-19T15:16:59.973Z,2.50
2017-11-19T15:19:28.373Z,3.70
2017-11-19T15:21:56.037Z,2.33
2017-11-19T15:24:23.674Z,2.90
2017-11-19T15:26:52.115Z,2.23
2017-11-19T15:29:19.753Z,2.80
2017-11-19T15:31:47.363Z,3.00
2017-11-19T15:34:15.010Z,2.97
2017-11-19T15:36:42.664Z,3.00
2017-11-19T15:39:10.373Z,3.50
2017-11-19T15:41:38.749Z,4.70
2017-11-19T15:44:07.144Z,4.27
2017-11-19T15:46:34.761Z,2.50
2017-11-19T15:49:02.603Z,2.73
2017-11-19T15:51:30.348Z,3.13
2017-11-19T15:53:57.988Z,2.30
2017-11-19T15:56:26.395Z,2.63
2017-11-19T15:58:54.051Z,2.87
2017-11-19T16:01:21.712Z,3.90
2017-11-19T16:03:49.354Z,2.70
2017-11-19T16:06:17.773Z,3.40
2017-11-19T16:08:45.407Z,5.23
2017-11-19T16:11:13.800Z,30.17
2017-11-19T16:13:41.543Z,3.30
2017-11-19T16:16:10.024Z,6.10
2017-11-19T16:18:38.422Z,3.00
2017-11-19T16:21:06.031Z,7.73
2017-11-19T16:23:33.682Z,2.77
2017-11-19T16:26:01.321Z,3.73
2017-11-19T16:28:28.976Z,3.00
2017-11-19T16:30:56.606Z,3.80
2017-11-19T16:33:25.000Z,2.43
2017-11-19T16:35:53.367Z,2.97
2017-11-19T16:38:20.999Z,2.83
2017-11-19T16:40:50.801Z,3.03
2017-11-19T16:43:18.473Z,3.43
2017-11-19T16:45:46.101Z,3.37
2017-11-19T16:48:13.704Z,3.63
2017-11-19T16:50:41.340Z,2.83
2017-11-19T16:53:08.961Z,3.80
2017-11-19T16:55:37.356Z,2.77
2017-11-19T16:58:05.751Z,2.70
2017-11-19T17:00:33.379Z,4.10
2017-11-19T17:03:01.790Z,2.77
2017-11-19T17:05:29.441Z,3.27
2017-11-19T17:07:58.057Z,2.57
2017-11-19T17:10:25.736Z,2.50
2017-11-19T17:12:53.353Z,3.20
2017-11-19T17:15:21.851Z,2.67
2017-11-19T17:17:49.500Z,3.10
2017-11-19T17:20:17.110Z,2.67
2017-11-19T17:22:44.913Z,2.33
2017-11-19T17:25:13.304Z,3.17
2017-11-19T17:27:41.703Z,3.43
2017-11-19T17:30:09.344Z,4.00
2017-11-19T17:32:37.754Z,7.60
2017-11-19T17:35:05.511Z,3.80
2017-11-19T17:37:33.173Z,6.87
2017-11-19T17:40:00.797Z,3.60
2017-11-19T17:42:29.198Z,3.27
2017-11-19T17:44:57.609Z,3.07
2017-11-19T17:47:25.253Z,3.07
2017-11-19T17:49:53.368Z,4.40
2017-11-19T17:52:20.980Z,3.50
2017-11-19T17:54:49.486Z,3.40
2017-11-19T17:57:17.126Z,4.10
2017-11-19T17:59:45.504Z,4.30
2017-11-19T18:02:13.918Z,3.50
2017-11-19T18:04:41.547Z,3.27
2017-11-19T18:07:09.959Z,2.60
2017-11-19T18:09:37.578Z,2.83
2017-11-19T18:12:05.972Z,2.93
2017-11-19T18:14:34.331Z,3.53
2017-11-19T18:17:01.975Z,3.20
2017-11-19T18:19:29.591Z,3.30
2017-11-19T18:21:57.243Z,3.37
2017-11-19T18:24:25.624Z,3.30
2017-11-19T18:26:54.010Z,3.13
2017-11-19T18:29:21.652Z,2.87
2017-11-19T18:31:50.097Z,3.53
2017-11-19T18:34:18.492Z,2.60
2017-11-19T18:36:46.100Z,3.07
2017-11-19T18:39:13.745Z,2.70
2017-11-19T18:41:42.130Z,3.00
2017-11-19T18:44:10.557Z,4.63
2017-11-19T18:46:38.206Z,2.60
2017-11-19T18:49:05.806Z,2.73
2017-11-19T18:51:33.485Z,2.50
2017-11-19T18:54:01.898Z,2.43
2017-11-19T18:56:29.710Z,2.70
2017-11-19T18:58:57.387Z,2.80
2017-11-19T19:01:25.004Z,2.97
2017-11-19T19:03:52.630Z,2.90
2017-11-19T19:06:21.090Z,4.67
2017-11-19T19:08:49.477Z,3.23
2017-11-19T19:11:17.870Z,2.40
2017-11-19T19:13:46.236Z,2.73
2017-11-19T19:16:13.872Z,3.37
2017-11-19T19:18:42.277Z,4.10
2017-11-19T19:21:09.898Z,4.10
2017-11-19T19:23:37.537Z,4.07
2017-11-19T19:26:05.165Z,6.10
2017-11-19T19:28:32.791Z,4.10
2017-11-19T19:31:00.407Z,4.70
2017-11-19T19:33:28.816Z,2.83
2017-11-19T19:35:56.435Z,6.77
2017-11-19T19:38:24.818Z,3.23
2017-11-19T19:40:53.220Z,6.10
2017-11-19T19:43:20.850Z,7.45
2017-11-19T19:45:49.282Z,8.57
2017-11-19T19:48:16.904Z,6.23
2017-11-19T19:50:45.268Z,2.97
2017-11-19T19:53:13.672Z,3.17
2017-11-19T19:55:42.040Z,2.97
2017-11-19T19:58:10.449Z,2.90
2017-11-19T20:00:38.055Z,2.57
2017-11-19T20:03:05.679Z,2.93
2017-11-19T20:05:33.331Z,2.60
2017-11-19T20:08:00.956Z,2.43
2017-11-19T20:10:28.590Z,2.67
2017-11-19T20:12:56.219Z,3.17
2017-11-19T20:15:23.907Z,2.47
2017-11-19T20:17:51.524Z,2.47
2017-11-19T20:20:19.915Z,2.33
2017-11-19T20:22:48.287Z,2.53
2017-11-19T20:25:16.658Z,3.37
2017-11-19T20:27:44.281Z,2.60
2017-11-19T20:30:11.897Z,2.67
2017-11-19T20:32:40.278Z,2.83
2017-11-19T20:35:08.684Z,2.63
2017-11-19T20:37:36.353Z,3.00
2017-11-19T20:40:03.951Z,1.90
2017-11-19T20:42:31.569Z,2.63
2017-11-19T20:44:59.241Z,2.57
2017-11-19T20:47:26.886Z,2.13
2017-11-19T20:49:54.533Z,2.27
2017-11-19T20:52:22.948Z,2.47
2017-11-19T20:54:50.644Z,2.77
2017-11-19T20:57:18.276Z,2.17
2017-11-19T20:59:45.889Z,2.83
2017-11-19T21:02:14.304Z,2.60
2017-11-19T21:04:41.931Z,2.53
2017-11-19T21:07:10.312Z,2.20
2017-11-19T21:09:37.930Z,2.43
2017-11-19T21:12:05.547Z,2.50
2017-11-19T21:14:33.938Z,3.27
2017-11-19T21:17:01.518Z,2.57
2017-11-19T21:19:29.124Z,2.47
2017-11-19T21:21:56.756Z,2.10
2017-11-19T21:24:24.391Z,2.60
2017-11-19T21:26:53.095Z,2.47
2017-11-19T21:29:20.747Z,2.23
2017-11-19T21:31:48.388Z,2.37
2017-11-19T21:34:16.767Z,2.10
2017-11-19T21:36:45.169Z,2.30
2017-11-19T21:39:12.804Z,2.40
2017-11-19T21:41:41.208Z,2.33
2017-11-19T21:44:08.803Z,2.50
2017-11-19T21:46:36.420Z,2.27
2017-11-19T21:49:07.188Z,2.60
2017-11-19T21:51:34.871Z,2.23
2017-11-19T21:54:03.329Z,2.20
2017-11-19T21:56:30.954Z,2.30
2017-11-19T21:58:59.353Z,2.33
2017-11-19T22:01:26.991Z,2.40
2017-11-19T22:03:55.383Z,2.40
2017-11-19T22:06:23.751Z,2.83
2017-11-19T22:08:52.137Z,2.80
2017-11-19T22:11:20.532Z,3.03
2017-11-19T22:13:48.920Z,3.00
2017-11-19T22:16:16.528Z,3.00
2017-11-19T22:18:44.158Z,3.00
2017-11-19T22:21:11.807Z,2.80
2017-11-19T22:23:39.450Z,2.70
2017-11-19T22:26:07.826Z,3.17
2017-11-19T22:28:36.197Z,11.47
2017-11-19T22:31:05.640Z,4.80
2017-11-19T22:33:33.294Z,4.27
2017-11-19T22:36:00.915Z,3.20
2017-11-19T22:38:28.559Z,3.17
2017-11-19T22:40:56.179Z,4.20
2017-11-19T22:43:23.871Z,3.27
2017-11-19T22:45:51.503Z,3.23
2017-11-19T22:48:19.955Z,3.23
2017-11-19T22:50:48.360Z,3.83
2017-11-19T22:53:16.752Z,2.60
2017-11-19T22:55:44.351Z,3.13
2017-11-19T22:58:11.965Z,3.03
2017-11-19T23:00:40.366Z,2.87
2017-11-19T23:03:07.995Z,2.87
2017-11-19T23:05:36.361Z,3.27
2017-11-19T23:08:03.987Z,2.67
2017-11-19T23:10:31.602Z,3.23
2017-11-19T23:13:00.018Z,3.10
2017-11-19T23:15:29.524Z,3.23
2017-11-19T23:17:57.123Z,3.10
2017-11-19T23:20:24.730Z,3.00
2017-11-19T23:22:52.327Z,3.30
2017-11-19T23:25:19.950Z,3.07
2017-11-19T23:27:47.552Z,3.17
2017-11-19T23:30:16.019Z,3.33
2017-11-19T23:32:43.616Z,3.30
2017-11-19T23:35:11.242Z,3.47
2017-11-19T23:37:38.823Z,2.80
2017-11-19T23:40:06.515Z,3.27
2017-11-19T23:42:34.111Z,3.10
2017-11-19T23:45:01.723Z,3.25
2017-11-19T23:47:29.331Z,3.10
2017-11-19T23:49:56.929Z,3.97
2017-11-19T23:52:24.556Z,2.90
2017-11-19T23:54:52.147Z,3.13
2017-11-19T23:57:19.745Z,2.93
2017-11-19T23:59:48.131Z,3.13
